Time;durP1;ratioP1;P1;durP2;ratioP2;P2;SDS_P1;SDS_P2;PMS_P1;PMS_P2;Temp;Humidity;BMP_temperature;BMP_pressure;BME280_temperature;BME280_humidity;BME280_pressure;Samples;Min_cycle;Max_cycle;Signal;HPM_P1;HPM_P2
2022/11/24 00:01:06;;;;;;;8.63;2.58;;;;;;;7.96;99.11;99188.69;4986784;28;20049;-80
2022/11/24 00:03:33;;;;;;;7.57;2.75;;;;;;;8.00;98.97;99186.59;4984117;28;20057;-80
2022/11/24 00:06:14;;;;;;;9.77;2.40;;;;;;;7.98;98.88;99191.19;4973763;28;20105;-79
2022/11/24 00:08:43;;;;;;;10.02;2.58;;;;;;;8.01;98.75;99191.78;4934038;28;20069;-80
2022/11/24 00:11:12;;;;;;;13.23;3.03;;;;;;;8.04;98.53;99195.97;4972767;28;20043;-80
2022/11/24 00:13:39;;;;;;;8.23;2.28;;;;;;;8.04;98.69;99201.25;4990030;28;20046;-80
2022/11/24 00:16:23;;;;;;;9.10;2.50;;;;;;;8.01;98.76;99199.72;4983700;28;20054;-80
2022/11/24 00:18:51;;;;;;;11.98;3.22;;;;;;;8.07;98.44;99206.25;5003832;28;20053;-80
2022/11/24 00:21:19;;;;;;;7.15;2.45;;;;;;;8.09;98.33;99200.81;4968061;28;20050;-80
2022/11/24 00:23:46;;;;;;;10.00;3.13;;;;;;;8.10;98.54;99203.34;4937982;28;20101;-81
2022/11/24 00:26:15;;;;;;;9.88;2.30;;;;;;;8.11;98.51;99209.44;4951627;28;20047;-80
2022/11/24 00:28:43;;;;;;;12.38;2.40;;;;;;;8.11;98.79;99214.75;4956519;28;20047;-80
2022/11/24 00:31:34;;;;;;;7.82;2.38;;;;;;;8.05;99.02;99221.41;4964744;28;20507;-80
2022/11/24 00:34:03;;;;;;;9.90;2.95;;;;;;;8.10;98.57;99218.38;4950084;28;20054;-80
2022/11/24 00:36:31;;;;;;;8.10;2.35;;;;;;;8.13;98.58;99218.94;4969640;28;20505;-80
2022/11/24 00:39:00;;;;;;;9.40;2.65;;;;;;;8.12;98.63;99222.56;4971664;28;20398;-80
2022/11/24 00:41:27;;;;;;;8.15;2.42;;;;;;;8.13;98.55;99228.66;4974205;28;20406;-82
2022/11/24 00:43:55;;;;;;;7.32;2.35;;;;;;;8.13;98.35;99228.66;4951351;28;20046;-80
2022/11/24 00:46:24;;;;;;;5.85;2.30;;;;;;;8.12;98.50;99227.84;5004512;28;20585;-80
2022/11/24 00:48:51;;;;;;;8.13;2.92;;;;;;;8.13;98.53;99223.38;4946730;28;20076;-80
2022/11/24 00:51:19;;;;;;;3.55;1.92;;;;;;;8.15;98.47;99226.72;4950671;28;20394;-81
2022/11/24 00:53:46;;;;;;;12.55;2.70;;;;;;;8.14;98.53;99223.25;4958422;28;20045;-80
2022/11/24 00:56:13;;;;;;;8.45;2.67;;;;;;;8.14;98.53;99225.03;4953435;28;20155;-80
2022/11/24 00:58:40;;;;;;;12.70;2.75;;;;;;;8.13;98.13;99232.16;4954822;28;20101;-80
2022/11/24 01:01:10;;;;;;;15.98;3.10;;;;;;;8.13;98.06;99231.31;4977700;28;20056;-80
2022/11/24 01:03:37;;;;;;;12.75;3.17;;;;;;;8.14;98.28;99235.63;4966599;28;20057;-80
2022/11/24 01:06:11;;;;;;;8.82;2.60;;;;;;;8.13;98.09;99244.53;4969351;28;20050;-80
2022/11/24 01:08:38;;;;;;;12.52;3.00;;;;;;;8.13;98.21;99241.88;4973055;28;20070;-80
2022/11/24 01:11:06;;;;;;;9.60;2.13;;;;;;;8.14;98.36;99254.13;4963387;28;20058;-80
2022/11/24 01:13:33;;;;;;;7.28;2.40;;;;;;;8.10;98.39;99247.47;4981623;28;20074;-80
2022/11/24 01:15:59;;;;;;;7.70;2.63;;;;;;;8.09;98.37;99256.34;4984693;28;20051;-80
2022/11/24 01:18:26;;;;;;;7.63;2.63;;;;;;;8.07;98.51;99256.50;4960515;28;20042;-80
2022/11/24 01:20:53;;;;;;;8.18;2.25;;;;;;;8.09;98.29;99264.28;4948818;28;20047;-80
2022/11/24 01:23:20;;;;;;;13.40;2.28;;;;;;;8.09;98.18;99265.13;5003323;28;20919;-80
2022/11/24 01:25:46;;;;;;;7.03;2.38;;;;;;;8.09;98.64;99267.78;4968473;28;20049;-80
2022/11/24 01:28:13;;;;;;;14.40;3.50;;;;;;;8.08;98.51;99260.81;4952499;28;20046;-80
2022/11/24 01:30:40;;;;;;;11.93;2.92;;;;;;;8.08;98.28;99263.44;4969276;28;20081;-80
2022/11/24 01:33:06;;;;;;;8.20;2.20;;;;;;;8.09;98.40;99273.06;4965534;28;20089;-80
2022/11/24 01:35:33;;;;;;;10.48;2.20;;;;;;;8.10;98.44;99274.72;4968316;28;20388;-81
2022/11/24 01:38:00;;;;;;;3.92;2.00;;;;;;;8.10;98.51;99279.19;4933676;28;20043;-80
2022/11/24 01:40:27;;;;;;;13.35;2.80;;;;;;;8.11;98.48;99286.13;4952758;28;20158;-80
2022/11/24 01:42:53;;;;;;;7.25;2.17;;;;;;;8.11;98.37;99286.97;4944138;28;20054;-80
2022/11/24 01:45:39;;;;;;;7.72;2.38;;;;;;;8.03;98.72;99287.63;4973923;28;20057;-80
2022/11/24 01:48:19;;;;;;;10.38;2.42;;;;;;;8.07;98.47;99288.22;4980145;28;20145;-80
2022/11/24 01:51:04;;;;;;;12.75;3.25;;;;;;;8.05;98.63;99288.34;4942423;28;20046;-80
2022/11/24 01:53:31;;;;;;;10.90;2.58;;;;;;;8.05;98.84;99303.38;4983292;28;20051;-80
2022/11/24 01:55:58;;;;;;;11.02;2.55;;;;;;;8.04;99.04;99313.13;4939484;28;20046;-80
2022/11/24 01:58:26;;;;;;;14.55;3.33;;;;;;;8.05;98.66;99316.59;4956382;28;20051;-80
2022/11/24 02:00:53;;;;;;;8.50;2.45;;;;;;;8.03;98.80;99314.06;4939256;28;20056;-80
2022/11/24 02:03:24;;;;;;;8.70;2.33;;;;;;;8.05;98.75;99312.16;4987281;28;20068;-80
2022/11/24 02:05:59;;;;;;;9.48;2.55;;;;;;;8.01;98.92;99309.88;4948727;28;20050;-80
2022/11/24 02:08:32;;;;;;;10.40;2.50;;;;;;;8.03;98.55;99306.16;4991604;28;20508;-80
2022/11/24 02:11:01;;;;;;;9.70;2.53;;;;;;;8.07;98.87;99311.19;4980555;28;20041;-80
2022/11/24 02:13:28;;;;;;;11.00;2.47;;;;;;;8.08;99.10;99318.16;4975392;28;20372;-80
2022/11/24 02:15:54;;;;;;;11.02;2.38;;;;;;;8.07;99.02;99309.38;4991155;28;20632;-80
2022/11/24 02:18:21;;;;;;;6.95;2.40;;;;;;;8.07;98.92;99308.56;4944051;28;20556;-80
2022/11/24 02:20:48;;;;;;;8.38;2.05;;;;;;;8.08;99.05;99311.03;4968625;28;20043;-80
2022/11/24 02:23:21;;;;;;;19.45;2.80;;;;;;;8.10;99.26;99310.91;4965023;28;20046;-80
2022/11/24 02:26:14;;;;;;;10.10;2.40;;;;;;;8.07;99.13;99305.91;4974854;28;20042;-80
2022/11/24 02:28:41;;;;;;;9.90;3.22;;;;;;;8.09;99.34;99314.50;4904870;28;20797;-80
2022/11/24 02:31:08;;;;;;;6.63;2.10;;;;;;;8.10;99.32;99300.34;4974639;28;20097;-80
2022/11/24 02:33:35;;;;;;;9.15;2.70;;;;;;;8.11;99.19;99296.72;4969920;28;20034;-80
2022/11/24 02:36:02;;;;;;;9.82;2.40;;;;;;;8.12;99.32;99293.13;4954381;28;20054;-80
2022/11/24 02:38:30;;;;;;;8.65;2.70;;;;;;;8.12;99.47;99299.25;4973943;28;20050;-80
2022/11/24 02:40:59;;;;;;;11.18;2.47;;;;;;;8.13;99.38;99292.13;4965930;28;20057;-80
2022/11/24 02:43:27;;;;;;;11.88;2.65;;;;;;;8.13;99.28;99303.53;4987964;28;20052;-80
2022/11/24 02:45:54;;;;;;;6.40;2.33;;;;;;;8.12;99.20;99304.53;4946990;28;20042;-80
2022/11/24 02:48:21;;;;;;;10.70;2.20;;;;;;;8.13;99.10;99292.97;4959191;28;20054;-80
2022/11/24 02:50:47;;;;;;;6.32;2.92;;;;;;;8.15;98.61;99298.13;4960962;28;20049;-80
2022/11/24 02:53:14;;;;;;;11.55;2.67;;;;;;;8.16;98.57;99299.78;4954091;28;20512;-81
2022/11/24 02:55:41;;;;;;;12.15;2.20;;;;;;;8.15;98.49;99298.13;4966395;28;20043;-80
2022/11/24 02:58:07;;;;;;;11.63;2.42;;;;;;;8.11;98.58;99294.91;4965105;28;20046;-80
2022/11/24 03:00:34;;;;;;;7.57;2.05;;;;;;;8.11;98.26;99289.63;4972140;28;20061;-84
2022/11/24 03:03:01;;;;;;;9.27;2.08;;;;;;;8.12;97.86;99291.31;4959860;28;20049;-80
2022/11/24 03:05:28;;;;;;;10.30;2.60;;;;;;;8.12;97.55;99291.31;4990092;28;20038;-80
2022/11/24 03:07:55;;;;;;;7.78;2.38;;;;;;;8.12;97.85;99290.47;4975949;28;20496;-81
2022/11/24 03:10:23;;;;;;;15.40;3.90;;;;;;;8.11;97.80;99292.25;5021896;28;20061;-80
2022/11/24 03:12:49;;;;;;;15.73;3.63;;;;;;;8.10;97.44;99301.19;4985537;28;20434;-80
2022/11/24 03:15:16;;;;;;;10.05;2.35;;;;;;;8.10;97.16;99297.69;4999245;28;20061;-83
2022/11/24 03:17:43;;;;;;;8.80;2.55;;;;;;;8.09;97.09;99303.94;4956744;28;20078;-80
2022/11/24 03:20:10;;;;;;;6.75;2.22;;;;;;;8.10;97.11;99303.81;4974568;28;20128;-80
2022/11/24 03:22:37;;;;;;;11.63;2.35;;;;;;;8.08;97.06;99311.03;4949686;28;21271;-82
2022/11/24 03:25:04;;;;;;;9.32;2.67;;;;;;;8.04;97.03;99307.84;4956494;28;20081;-80
2022/11/24 03:27:30;;;;;;;7.72;2.33;;;;;;;7.98;97.09;99307.53;4960671;28;20049;-80
2022/11/24 03:29:57;;;;;;;9.65;2.42;;;;;;;7.94;96.96;99303.47;4942414;28;20496;-80
2022/11/24 03:32:24;;;;;;;12.43;2.70;;;;;;;7.90;96.97;99305.53;4971649;28;20073;-79
2022/11/24 03:34:51;;;;;;;13.23;2.28;;;;;;;7.88;97.00;99310.09;4960640;28;20465;-80
2022/11/24 03:37:18;;;;;;;11.80;3.15;;;;;;;7.89;97.10;99316.25;4968714;28;20051;-80
2022/11/24 03:39:44;;;;;;;17.08;3.55;;;;;;;7.88;96.91;99309.28;4959203;28;20046;-80
2022/11/24 03:42:11;;;;;;;15.07;2.63;;;;;;;7.92;96.65;99316.81;4980385;28;20076;-80
2022/11/24 03:44:38;;;;;;;11.88;2.45;;;;;;;7.96;96.68;99312.97;4973293;28;20050;-80
2022/11/24 03:47:05;;;;;;;9.93;2.00;;;;;;;7.96;96.64;99310.31;4951698;28;20108;-80
2022/11/24 03:49:31;;;;;;;7.78;1.95;;;;;;;7.92;96.82;99316.00;4986741;28;20478;-80
2022/11/24 03:51:59;;;;;;;15.00;2.42;;;;;;;7.92;97.06;99327.41;4961705;28;20046;-80
2022/11/24 03:54:32;;;;;;;13.07;2.38;;;;;;;7.87;96.78;99334.88;4934001;28;20405;-81
2022/11/24 03:56:59;;;;;;;8.00;2.45;;;;;;;7.80;96.61;99339.84;4976441;28;20042;-80
2022/11/24 03:59:26;;;;;;;7.53;2.47;;;;;;;7.79;96.72;99342.63;4983951;28;20042;-80
2022/11/24 04:01:52;;;;;;;10.82;2.28;;;;;;;7.76;96.77;99342.88;4975824;28;20050;-80
2022/11/24 04:04:19;;;;;;;9.50;2.13;;;;;;;7.73;96.93;99353.69;5001331;28;20135;-80
2022/11/24 04:06:46;;;;;;;14.48;2.85;;;;;;;7.73;96.87;99341.31;4957564;28;20097;-80
2022/11/24 04:09:13;;;;;;;10.80;2.67;;;;;;;7.72;97.01;99347.59;4975924;28;20057;-83
2022/11/24 04:14:25;;;;;;;13.00;2.67;;;;;;;7.69;96.99;99355.78;4951984;28;20386;-81
2022/11/24 04:16:51;;;;;;;7.70;3.17;;;;;;;7.69;96.98;99361.06;4957485;28;20050;-80
2022/11/24 04:19:18;;;;;;;12.10;5.15;;;;;;;7.72;96.90;99359.97;4958325;28;20051;-80
2022/11/24 04:21:45;;;;;;;13.93;4.25;;;;;;;7.71;97.47;99366.19;4979984;28;20058;-82
2022/11/24 04:24:12;;;;;;;10.00;3.67;;;;;;;7.70;97.42;99367.19;4971823;28;20050;-80
2022/11/24 04:26:38;;;;;;;9.40;3.67;;;;;;;7.75;97.54;99372.91;4973908;28;20098;-80
2022/11/24 04:29:05;;;;;;;10.27;3.33;;;;;;;7.78;97.27;99372.66;4991251;28;20112;-81
2022/11/24 04:31:32;;;;;;;11.88;2.63;;;;;;;7.80;97.52;99376.00;4967509;28;20122;-80
2022/11/24 04:33:59;;;;;;;9.75;2.97;;;;;;;7.85;97.34;99380.91;4989807;28;20065;-81
2022/11/24 04:36:25;;;;;;;9.65;2.42;;;;;;;7.88;97.49;99380.66;4941290;28;20131;-80
2022/11/24 04:38:52;;;;;;;9.32;2.00;;;;;;;7.87;97.66;99382.47;4965739;28;20050;-80
2022/11/24 04:41:39;;;;;;;4.70;1.98;;;;;;;7.89;97.74;99379.69;4983432;28;20657;-80
2022/11/24 04:44:06;;;;;;;7.97;2.33;;;;;;;7.93;97.40;99389.88;4986277;28;20461;-80
2022/11/24 04:46:32;;;;;;;10.13;2.72;;;;;;;7.96;97.34;99384.34;4964674;28;20042;-80
2022/11/24 04:49:00;;;;;;;9.93;2.65;;;;;;;7.99;97.25;99378.78;4938698;28;20050;-80
2022/11/24 04:51:26;;;;;;;20.98;3.10;;;;;;;8.00;97.27;99384.91;4968335;28;20050;-80
2022/11/24 04:53:53;;;;;;;10.68;4.32;;;;;;;8.01;97.25;99386.56;4934629;28;20043;-80
2022/11/24 04:56:20;;;;;;;9.23;3.75;;;;;;;8.03;97.16;99392.56;4951018;28;20039;-80
2022/11/24 04:58:47;;;;;;;12.27;3.40;;;;;;;8.05;97.25;99399.41;4951489;28;20046;-80
2022/11/24 05:01:14;;;;;;;9.93;3.97;;;;;;;8.05;97.22;99399.41;4948522;28;20043;-80
2022/11/24 05:03:41;;;;;;;9.75;4.13;;;;;;;8.07;97.43;99409.03;4962512;28;20050;-81
2022/11/24 05:06:08;;;;;;;14.73;4.88;;;;;;;8.08;97.45;99408.88;4972268;28;20580;-80
2022/11/24 05:08:34;;;;;;;17.65;4.78;;;;;;;8.09;97.43;99409.72;4967488;28;20583;-80
2022/11/24 05:11:05;;;;;;;11.20;5.55;;;;;;;8.08;97.38;99422.09;4949926;28;20053;-80
2022/11/24 05:13:32;;;;;;;9.95;6.93;;;;;;;8.10;97.49;99422.81;4972271;28;20047;-81
2022/11/24 05:16:00;;;;;;;12.63;4.45;;;;;;;8.12;97.55;99420.88;4968163;28;20042;-80
2022/11/24 05:18:27;;;;;;;10.30;4.72;;;;;;;8.12;97.99;99423.53;4953792;28;20045;-80
2022/11/24 05:20:54;;;;;;;8.25;2.75;;;;;;;8.13;97.58;99413.78;4948267;28;20042;-80
2022/11/24 05:23:21;;;;;;;9.95;2.78;;;;;;;8.14;97.95;99416.31;4932675;28;20047;-80
2022/11/24 05:25:48;;;;;;;9.48;2.75;;;;;;;8.15;97.88;99423.25;4965669;28;20047;-80
2022/11/24 05:28:16;;;;;;;7.93;1.90;;;;;;;8.15;98.20;99422.44;4926221;28;20057;-80
2022/11/24 05:30:44;;;;;;;7.90;2.05;;;;;;;8.15;98.12;99414.50;4962672;28;20133;-82
2022/11/24 05:33:21;;;;;;;11.13;2.42;;;;;;;8.16;98.18;99422.28;4956690;28;20190;-80
2022/11/24 05:35:49;;;;;;;6.70;1.90;;;;;;;8.17;98.24;99423.97;4942354;28;20430;-80
2022/11/24 05:38:16;;;;;;;10.57;2.55;;;;;;;8.18;98.22;99414.22;4979285;28;20046;-80
2022/11/24 05:40:43;;;;;;;9.20;2.10;;;;;;;8.18;98.13;99428.28;4960676;28;20489;-80
2022/11/24 05:43:11;;;;;;;6.97;1.85;;;;;;;8.18;98.43;99424.81;4958878;28;20500;-81
2022/11/24 05:45:38;;;;;;;11.15;1.98;;;;;;;8.20;98.59;99422.88;4982723;28;20057;-81
2022/11/24 05:48:06;;;;;;;11.25;3.30;;;;;;;8.20;98.29;99430.81;4949312;28;20053;-82
2022/11/24 05:50:34;;;;;;;11.02;2.08;;;;;;;8.22;98.58;99436.81;4947196;28;20053;-82
2022/11/24 05:53:11;;;;;;;10.80;2.00;;;;;;;8.22;98.52;99434.16;4984277;28;20058;-82
2022/11/24 05:55:40;;;;;;;9.45;2.05;;;;;;;8.21;98.56;99438.59;4978084;28;20046;-82
2022/11/24 05:58:07;;;;;;;11.98;2.63;;;;;;;8.22;98.43;99440.28;4971247;28;20058;-82
2022/11/24 06:00:41;;;;;;;13.98;2.03;;;;;;;8.23;98.54;99443.78;4945206;28;20050;-82
2022/11/24 06:03:09;;;;;;;15.98;2.40;;;;;;;8.22;98.74;99440.28;4943075;28;20046;-81
2022/11/24 06:05:36;;;;;;;9.45;1.90;;;;;;;8.23;98.68;99443.78;4954941;28;20453;-82
2022/11/24 06:08:03;;;;;;;9.00;2.25;;;;;;;8.23;98.83;99449.06;4969790;28;20056;-82
2022/11/24 06:10:30;;;;;;;6.75;1.77;;;;;;;8.23;98.82;99449.06;4972443;28;20039;-79
2022/11/24 06:12:57;;;;;;;9.63;1.83;;;;;;;8.25;99.03;99460.34;4955196;28;20576;-80
2022/11/24 06:15:23;;;;;;;12.20;2.28;;;;;;;8.24;98.94;99456.00;4983749;28;20055;-80
2022/11/24 06:17:57;;;;;;;6.35;2.15;;;;;;;8.23;98.94;99457.81;4956693;28;20416;-80
2022/11/24 06:20:24;;;;;;;11.68;2.40;;;;;;;8.25;99.02;99460.34;4969488;28;20499;-80
2022/11/24 06:22:58;;;;;;;12.32;2.05;;;;;;;8.23;99.25;99457.81;4954039;28;20046;-79
2022/11/24 06:25:27;;;;;;;15.25;2.08;;;;;;;8.24;99.08;99456.00;4958635;28;20038;-79
2022/11/24 06:27:53;;;;;;;6.07;2.10;;;;;;;8.24;98.99;99458.66;4947552;28;20054;-79
2022/11/24 06:30:20;;;;;;;14.30;2.35;;;;;;;8.24;99.10;99458.66;4970568;28;20045;-80
2022/11/24 06:32:47;;;;;;;9.73;2.05;;;;;;;8.24;99.45;99454.22;4983354;28;20054;-81
2022/11/24 06:35:15;;;;;;;8.73;1.90;;;;;;;8.24;99.39;99458.66;4957979;28;20050;-81
2022/11/24 06:37:42;;;;;;;8.98;1.70;;;;;;;8.24;99.33;99456.00;4953215;28;20046;-81
2022/11/24 06:40:09;;;;;;;10.88;3.40;;;;;;;8.25;99.36;99463.00;4954835;28;20066;-80
2022/11/24 06:42:36;;;;;;;9.40;2.72;;;;;;;8.25;99.31;99465.66;4987461;28;20501;-80
2022/11/24 06:45:03;;;;;;;9.32;2.05;;;;;;;8.25;99.50;99465.66;4969000;28;20050;-80
2022/11/24 06:47:35;;;;;;;12.73;2.33;;;;;;;8.24;99.51;99470.09;4952866;28;20069;-80
2022/11/24 06:50:02;;;;;;;10.65;2.97;;;;;;;8.25;99.54;99470.94;4973154;28;20130;-80
2022/11/24 06:52:30;;;;;;;13.60;3.15;;;;;;;8.24;99.77;99478.03;4968409;28;20072;-80
2022/11/24 06:54:57;;;;;;;15.25;3.70;;;;;;;8.24;99.71;99475.41;4948299;28;20045;-80
2022/11/24 06:57:25;;;;;;;14.65;3.30;;;;;;;8.24;99.74;99464.81;4977740;28;20132;-79
2022/11/24 06:59:51;;;;;;;15.38;3.22;;;;;;;8.24;99.61;99475.41;4972926;28;20038;-80
2022/11/24 07:02:18;;;;;;;8.63;2.40;;;;;;;8.26;99.51;99472.59;4947861;28;20045;-80
2022/11/24 07:04:45;;;;;;;6.95;2.72;;;;;;;8.26;99.76;99480.53;4942023;28;20038;-80
2022/11/24 07:07:11;;;;;;;15.50;2.63;;;;;;;8.27;99.86;99482.22;4966243;28;20054;-81
2022/11/24 07:09:38;;;;;;;12.75;3.17;;;;;;;8.28;99.78;99489.19;4967340;28;20058;-80
2022/11/24 07:12:05;;;;;;;10.38;2.35;;;;;;;8.29;99.63;99490.84;4940388;28;20104;-80
2022/11/24 07:14:32;;;;;;;10.30;2.30;;;;;;;8.29;99.54;99488.22;4952939;28;20100;-80
2022/11/24 07:17:01;;;;;;;11.27;2.38;;;;;;;8.31;99.22;99488.91;4948529;28;20047;-80
2022/11/24 07:19:27;;;;;;;12.07;3.03;;;;;;;8.30;99.61;99479.31;4974196;28;20054;-79
2022/11/24 07:21:54;;;;;;;9.95;2.50;;;;;;;8.29;99.57;99496.16;4988321;28;20064;-80
2022/11/24 07:24:21;;;;;;;10.27;2.40;;;;;;;8.30;99.53;99491.72;4970458;28;20038;-80
2022/11/24 07:26:48;;;;;;;13.13;2.70;;;;;;;8.31;99.34;99499.50;4966403;28;20050;-80
2022/11/24 07:29:14;;;;;;;9.05;2.00;;;;;;;8.34;99.09;99501.06;4988190;28;20445;-80
2022/11/24 07:31:41;;;;;;;12.82;2.80;;;;;;;8.34;99.34;99503.69;4957188;28;20050;-80
2022/11/24 07:34:08;;;;;;;18.33;3.22;;;;;;;8.37;99.28;99508.72;4965175;28;20051;-80
2022/11/24 07:36:35;;;;;;;14.65;5.53;;;;;;;8.36;99.33;99515.81;4970939;28;20053;-81
2022/11/24 07:39:05;;;;;;;12.20;4.28;;;;;;;8.36;98.92;99518.47;4972019;28;20048;-80
2022/11/24 07:41:31;;;;;;;15.00;3.42;;;;;;;8.37;99.21;99533.41;4970797;28;20573;-79
2022/11/24 07:43:58;;;;;;;35.17;15.73;;;;;;;8.38;98.90;99529.78;4974072;28;20062;-79
2022/11/24 07:46:25;;;;;;;47.08;22.65;;;;;;;8.40;98.96;99529.69;4986152;28;20038;-80
2022/11/24 07:48:52;;;;;;;43.25;22.15;;;;;;;8.40;98.84;99537.63;4974014;28;20086;-80
2022/11/24 07:51:18;;;;;;;20.02;4.65;;;;;;;8.41;98.91;99542.78;4969616;28;20050;-80
2022/11/24 07:53:45;;;;;;;14.80;3.25;;;;;;;8.42;99.11;99538.31;4953334;28;20049;-80
2022/11/24 07:56:12;;;;;;;10.95;5.10;;;;;;;8.42;99.26;99543.59;4957862;28;21338;-80
2022/11/24 07:58:39;;;;;;;11.85;2.58;;;;;;;8.42;98.78;99544.47;4954429;28;20050;-80
2022/11/24 08:01:10;;;;;;;13.50;2.45;;;;;;;8.42;98.68;99539.16;4985662;28;20053;-80
2022/11/24 08:03:37;;;;;;;36.50;18.25;;;;;;;8.45;98.68;99546.00;4976994;28;20060;-79
2022/11/24 08:06:03;;;;;;;37.88;19.50;;;;;;;8.45;98.35;99536.25;4977709;28;20465;-80
2022/11/24 08:08:50;;;;;;;33.38;13.30;;;;;;;8.45;98.22;99543.38;4968017;28;20125;-80
2022/11/24 08:11:17;;;;;;;29.35;14.07;;;;;;;8.47;98.35;99552.84;4968159;28;20046;-80
2022/11/24 08:13:44;;;;;;;17.48;10.13;;;;;;;8.43;99.32;99551.41;4993561;28;20114;-80
2022/11/24 08:16:13;;;;;;;14.35;7.43;;;;;;;8.46;98.41;99550.31;4985416;28;20046;-80
2022/11/24 08:18:41;;;;;;;10.45;5.88;;;;;;;8.47;98.80;99547.56;4982407;28;20045;-80
2022/11/24 08:21:11;;;;;;;12.77;5.85;;;;;;;8.47;98.60;99555.50;4957176;28;20038;-81
2022/11/24 08:23:38;;;;;;;15.98;7.50;;;;;;;8.47;98.69;99560.78;4971288;28;20544;-80
2022/11/24 08:26:07;;;;;;;16.52;5.57;;;;;;;8.50;98.75;99549.09;4963342;28;20081;-80
2022/11/24 08:28:35;;;;;;;10.70;3.35;;;;;;;8.47;98.86;99555.50;4982316;28;20050;-81
2022/11/24 08:31:07;;;;;;;11.45;2.08;;;;;;;8.46;98.79;99568.84;4982118;28;20100;-80
2022/11/24 08:33:34;;;;;;;13.10;2.75;;;;;;;8.49;99.18;99576.53;4981968;28;20042;-79
2022/11/24 08:36:10;;;;;;;12.55;2.38;;;;;;;8.45;98.17;99577.75;4979852;28;20054;-80
2022/11/24 08:38:37;;;;;;;9.13;2.03;;;;;;;8.51;98.50;99589.63;4971489;28;20046;-79
2022/11/24 08:41:09;;;;;;;10.35;1.83;;;;;;;8.51;98.21;99582.53;4970182;28;20050;-80
2022/11/24 08:43:36;;;;;;;10.27;1.80;;;;;;;8.53;98.11;99582.41;4982810;28;20426;-80
2022/11/24 08:46:12;;;;;;;14.15;3.10;;;;;;;8.50;98.00;99591.44;4966293;28;20050;-80
2022/11/24 08:48:40;;;;;;;9.32;2.05;;;;;;;8.54;98.20;99584.91;4980974;28;20536;-81
2022/11/24 08:51:09;;;;;;;8.32;2.08;;;;;;;8.56;98.00;99584.78;4988271;28;20073;-80
2022/11/24 08:53:36;;;;;;;11.68;2.10;;;;;;;8.58;97.68;99586.34;4981136;28;20081;-80
2022/11/24 08:56:04;;;;;;;8.95;2.05;;;;;;;8.59;97.54;99588.00;4970117;28;20386;-80
2022/11/24 08:58:32;;;;;;;13.93;2.72;;;;;;;8.60;97.86;99587.06;4961109;28;20054;-81
2022/11/24 09:01:11;;;;;;;8.50;3.15;;;;;;;8.58;97.83;99589.00;4984553;28;20046;-81
2022/11/24 09:03:38;;;;;;;17.00;3.83;;;;;;;8.63;97.95;99602.69;4976865;28;20544;-79
2022/11/24 09:06:09;;;;;;;5.70;2.38;;;;;;;8.64;97.64;99599.06;4969003;28;20042;-80
2022/11/24 09:08:36;;;;;;;7.07;2.38;;;;;;;8.66;97.26;99612.16;4984371;28;20052;-79
2022/11/24 09:11:14;;;;;;;6.13;1.55;;;;;;;8.62;96.76;99611.56;4984494;28;20054;-80
2022/11/24 09:13:41;;;;;;;11.30;2.00;;;;;;;8.67;97.10;99616.47;4986608;28;20042;-80
2022/11/24 09:16:11;;;;;;;12.45;1.90;;;;;;;8.68;96.99;99620.81;4959700;28;20409;-79
2022/11/24 09:18:38;;;;;;;9.23;1.60;;;;;;;8.69;97.01;99627.78;4999524;28;20082;-81
2022/11/24 09:21:06;;;;;;;7.65;2.22;;;;;;;8.70;96.94;99626.81;4957170;28;20058;-81
2022/11/24 09:23:33;;;;;;;9.07;1.45;;;;;;;8.71;96.80;99633.78;4981703;28;20050;-82
2022/11/24 09:26:09;;;;;;;9.70;2.05;;;;;;;8.67;96.39;99632.38;4953823;28;20060;-81
2022/11/24 09:28:36;;;;;;;10.18;2.20;;;;;;;8.68;97.02;99647.28;4984135;28;20097;-80
2022/11/24 09:31:05;;;;;;;6.22;1.58;;;;;;;8.68;96.74;99650.78;4943177;28;20058;-79
2022/11/24 09:33:32;;;;;;;7.32;1.60;;;;;;;8.71;96.88;99657.63;4969552;28;20514;-80
2022/11/24 09:35:59;;;;;;;7.03;1.67;;;;;;;8.74;96.35;99656.53;4968042;28;20046;-80
2022/11/24 09:38:26;;;;;;;5.72;1.38;;;;;;;8.76;96.44;99655.44;4987076;28;20049;-80
2022/11/24 09:40:53;;;;;;;6.45;1.40;;;;;;;8.78;96.84;99650.84;4960370;28;20050;-80
2022/11/24 09:43:37;;;;;;;8.13;1.77;;;;;;;8.79;96.42;99646.38;5021361;28;20038;-80
2022/11/24 09:46:12;;;;;;;6.10;1.75;;;;;;;8.86;96.00;99663.44;4948439;28;20506;-80
2022/11/24 09:48:42;;;;;;;4.63;1.70;;;;;;;8.93;96.10;99655.81;4985172;28;20039;-81
2022/11/24 09:51:11;;;;;;;6.30;1.50;;;;;;;8.97;95.87;99666.00;4978803;28;20133;-80
2022/11/24 09:53:48;;;;;;;4.72;1.30;;;;;;;8.97;95.44;99670.47;4969580;28;20121;-80
2022/11/24 09:56:21;;;;;;;5.97;1.20;;;;;;;8.91;95.41;99675.31;4986312;28;20275;-80
2022/11/24 09:59:40;;;;;;;2.85;1.10;;;;;;;8.77;95.91;99666.84;4962927;28;20042;-81
2022/11/24 10:02:12;;;;;;;4.10;1.40;;;;;;;8.91;95.79;99670.03;4887709;28;20052;-81
2022/11/24 10:04:43;;;;;;;5.65;1.30;;;;;;;8.80;96.01;99670.09;4956065;28;20050;-81
2022/11/24 10:07:13;;;;;;;7.95;1.30;;;;;;;8.91;95.94;99677.97;4920862;28;20062;-80
2022/11/24 10:09:51;;;;;;;5.95;1.52;;;;;;;8.90;95.86;99684.25;4929850;28;20054;-80
2022/11/24 10:12:27;;;;;;;6.40;1.10;;;;;;;8.96;96.22;99688.19;4951867;28;20050;-79
2022/11/24 10:15:10;;;;;;;5.65;1.65;;;;;;;8.99;95.85;99690.56;4979439;28;20049;-80
2022/11/24 10:18:02;;;;;;;4.07;1.17;;;;;;;8.97;95.53;99684.56;4970395;28;20128;-80
2022/11/24 10:20:50;;;;;;;7.25;1.30;;;;;;;8.93;95.25;99683.16;4938580;28;20074;-80
2022/11/24 10:23:32;;;;;;;7.13;1.23;;;;;;;9.02;95.64;99687.66;4957213;28;20129;-80
2022/11/24 10:26:07;;;;;;;5.40;0.93;;;;;;;9.02;95.53;99695.59;4956081;28;20055;-80
2022/11/24 10:28:42;;;;;;;7.18;1.85;;;;;;;9.02;95.55;99695.59;4935692;28;20042;-81
2022/11/24 10:31:21;;;;;;;16.23;8.43;;;;;;;9.04;95.15;99698.13;4955108;28;20909;-80
2022/11/24 10:33:48;;;;;;;6.30;3.50;;;;;;;9.06;95.10;99690.91;4938387;28;20057;-81
2022/11/24 10:36:24;;;;;;;6.78;1.60;;;;;;;9.04;94.85;99691.00;4973257;28;20092;-81
2022/11/24 10:39:03;;;;;;;8.75;1.52;;;;;;;9.00;95.50;99680.81;4969987;28;20046;-80
2022/11/24 10:42:04;;;;;;;5.72;1.35;;;;;;;8.98;95.11;99686.25;4939309;28;20056;-80
2022/11/24 10:44:31;;;;;;;15.00;1.77;;;;;;;9.03;95.46;99685.84;4947565;28;20042;-80
2022/11/24 10:46:58;;;;;;;3.65;1.55;;;;;;;9.05;95.60;99683.91;4962892;28;20053;-81
2022/11/24 10:49:27;;;;;;;4.82;1.55;;;;;;;9.04;95.15;99690.19;4982856;28;20082;-81
2022/11/24 10:52:04;;;;;;;7.13;1.25;;;;;;;8.93;95.93;99682.28;4995258;28;20106;-79
2022/11/24 10:54:32;;;;;;;2.40;1.13;;;;;;;8.98;95.68;99680.94;4935411;28;20046;-79
2022/11/24 10:56:58;;;;;;;3.75;1.40;;;;;;;9.01;95.63;99677.22;4958526;28;20046;-80
2022/11/24 10:59:31;;;;;;;6.88;2.85;;;;;;;8.98;95.33;99688.91;4969231;28;20045;-80
2022/11/24 11:01:58;;;;;;;;;;;;;;;8.86;95.27;99672.22;4985324;28;20134;-86
2022/11/24 11:04:27;;;;;;;5.20;1.30;;;;;;;8.98;95.86;99670.38;5002440;28;19964;-84
2022/11/24 11:07:08;;;;;;;7.00;1.27;;;;;;;8.95;95.97;99672.41;4960461;28;20398;-88
2022/11/24 11:09:34;;;;;;;5.45;1.50;;;;;;;9.08;95.92;99667.75;4965047;28;20080;-87
2022/11/24 11:12:17;;;;;;;3.85;1.00;;;;;;;9.11;95.99;99670.16;4944334;28;20513;-89
2022/11/24 11:15:22;;;;;;;8.77;1.75;;;;;;;9.16;95.46;99673.25;4933342;28;20051;-88
2022/11/24 11:17:51;;;;;;;2.85;1.00;;;;;;;9.29;96.09;99673.88;4964628;28;20042;-86
2022/11/24 11:20:21;;;;;;;4.35;1.63;;;;;;;9.33;95.40;99672.63;4963963;28;20050;-88
2022/11/24 11:23:35;;;;;;;;;;;;;;;;;;;;;
2022/11/24 11:27:17;;;;;;;7.10;1.50;;;;;;;9.37;96.00;99675.88;4884069;28;20055;-89
2022/11/24 11:29:44;;;;;;;6.00;1.70;;;;;;;9.43;95.48;99682.44;4938341;28;20044;-88
2022/11/24 11:32:31;;;;;;;4.03;1.50;;;;;;;9.41;95.23;99695.00;4886007;29;20051;-88
2022/11/24 11:35:18;;;;;;;8.43;1.70;;;;;;;9.39;94.87;99689.84;4919949;29;20080;-87
2022/11/24 11:37:46;;;;;;;5.53;1.85;;;;;;;9.41;94.76;99697.63;4886309;29;20048;-88
2022/11/24 11:40:17;;;;;;;7.43;1.70;;;;;;;9.41;95.12;99701.13;4880879;29;20040;-90
2022/11/24 11:42:50;;;;;;;24.77;3.58;;;;;;;9.43;95.08;99701.84;4899906;29;20082;-88
2022/11/24 11:45:33;;;;;;;6.63;1.33;;;;;;;9.40;94.55;99707.41;4816053;28;20442;-86
2022/11/24 11:48:00;;;;;;;4.60;1.65;;;;;;;9.45;94.98;99709.66;4861805;29;20405;-86
2022/11/24 11:50:40;;;;;;;6.68;1.90;;;;;;;9.47;94.58;99705.91;4875271;29;20052;-88
2022/11/24 11:53:44;;;;;;;4.10;2.13;;;;;;;9.44;94.10;99713.25;4883957;29;20983;-87
2022/11/24 11:56:14;;;;;;;9.95;1.95;;;;;;;9.49;94.46;99709.28;4836521;29;20059;-89